Time;durP1;ratioP1;P1;durP2;ratioP2;P2;SDS_P1;SDS_P2;PMS_P1;PMS_P2;Temp;Humidity;BMP_temperature;BMP_pressure;BME280_temperature;BME280_humidity;BME280_pressure;Samples;Min_cycle;Max_cycle;Signal;HPM_P1;HPM_P2
2022/05/17 00:01:49;;;;;;;11.60;7.77;;;19.20;99.90;;;;;;5053266;28;20474;-60
2022/05/17 00:04:17;;;;;;;9.37;7.13;;;19.20;99.90;;;;;;5053507;28;21112;-61
2022/05/17 00:06:44;;;;;;;8.40;6.83;;;19.30;99.90;;;;;;5053423;28;20453;-61
2022/05/17 00:09:11;;;;;;;9.73;7.47;;;19.30;99.90;;;;;;5053316;28;20476;-60
2022/05/17 00:11:38;;;;;;;10.63;7.20;;;19.30;99.90;;;;;;5053126;28;20465;-62
2022/05/17 00:14:06;;;;;;;8.90;6.80;;;19.30;99.90;;;;;;5052980;28;20489;-61
2022/05/17 00:16:33;;;;;;;10.80;6.83;;;19.40;99.90;;;;;;5053097;28;20449;-61
2022/05/17 00:19:00;;;;;;;9.40;6.60;;;19.40;99.90;;;;;;5053004;28;20461;-61
2022/05/17 00:21:29;;;;;;;10.10;7.40;;;19.40;99.90;;;;;;5052509;28;20474;-60
2022/05/17 00:23:56;;;;;;;12.20;7.50;;;19.10;99.90;;;;;;5053034;28;20472;-60
2022/05/17 00:26:23;;;;;;;9.87;7.40;;;19.00;99.90;;;;;;5052505;28;20488;-59
2022/05/17 00:28:50;;;;;;;10.70;6.70;;;19.10;99.90;;;;;;5052362;28;20446;-59
2022/05/17 00:31:17;;;;;;;11.27;7.00;;;19.10;99.90;;;;;;5052461;28;20473;-60
2022/05/17 00:33:44;;;;;;;9.00;6.23;;;19.00;99.90;;;;;;5052812;28;20490;-60
2022/05/17 00:36:11;;;;;;;10.57;6.53;;;19.00;99.90;;;;;;5052735;28;20532;-60
2022/05/17 00:38:39;;;;;;;9.83;6.43;;;18.90;99.90;;;;;;5052790;28;20536;-59
2022/05/17 00:41:07;;;;;;;9.60;6.47;;;18.60;99.90;;;;;;5052512;28;20775;-59
2022/05/17 00:46:18;;;;;;;9.30;5.50;;;18.20;99.90;;;;;;5051073;28;20430;-61
2022/05/17 00:48:46;;;;;;;9.83;6.10;;;18.10;99.90;;;;;;5052705;28;20552;-59
2022/05/17 00:51:13;;;;;;;9.03;5.60;;;18.10;99.90;;;;;;5052341;28;20531;-59
2022/05/17 00:53:42;;;;;;;8.47;5.60;;;18.10;99.90;;;;;;5052161;28;20485;-61
2022/05/17 00:56:13;;;;;;;8.50;5.73;;;18.00;99.90;;;;;;5051969;28;20993;-60
2022/05/17 00:58:43;;;;;;;8.83;5.00;;;18.00;99.90;;;;;;5051893;28;20954;-59
2022/05/17 01:01:13;;;;;;;10.93;5.80;;;18.10;99.90;;;;;;5052043;28;20552;-59
2022/05/17 01:03:44;;;;;;;9.47;5.90;;;17.90;99.90;;;;;;5052512;28;20445;-60
2022/05/17 01:06:12;;;;;;;10.70;6.30;;;17.90;99.90;;;;;;5052055;28;20464;-61
2022/05/17 01:08:40;;;;;;;6.40;4.70;;;18.10;99.90;;;;;;5052183;28;20453;-60
2022/05/17 01:11:07;;;;;;;7.87;5.37;;;18.30;99.90;;;;;;5052126;28;20863;-60
2022/05/17 01:16:19;;;;;;;8.37;5.87;;;18.50;99.90;;;;;;5051913;28;20579;-60
2022/05/17 01:18:46;;;;;;;7.00;5.80;;;18.50;99.90;;;;;;5051658;28;20457;-60
2022/05/17 01:21:15;;;;;;;9.87;6.03;;;18.50;99.90;;;;;;5051784;28;20481;-59
2022/05/17 01:23:42;;;;;;;7.70;5.30;;;18.60;99.90;;;;;;5051709;28;20442;-60
2022/05/17 01:26:14;;;;;;;7.07;5.10;;;18.60;99.90;;;;;;5051500;28;20490;-60
2022/05/17 01:28:41;;;;;;;7.07;5.63;;;18.60;99.90;;;;;;5051894;28;20934;-61
2022/05/17 01:31:08;;;;;;;10.53;5.20;;;18.60;99.90;;;;;;5051613;28;20470;-60
2022/05/17 01:33:37;;;;;;;8.43;5.37;;;18.50;99.90;;;;;;5051719;28;21048;-58
2022/05/17 01:36:07;;;;;;;9.10;5.50;;;18.50;99.90;;;;;;5051944;28;20457;-60
2022/05/17 01:38:37;;;;;;;8.03;5.27;;;18.50;99.90;;;;;;5051639;28;20445;-60
2022/05/17 01:41:04;;;;;;;8.43;5.53;;;18.50;99.90;;;;;;5051510;28;20998;-59
2022/05/17 01:43:31;;;;;;;8.23;5.60;;;18.40;99.90;;;;;;5051176;28;20461;-60
2022/05/17 01:45:58;;;;;;;14.40;5.50;;;18.30;99.90;;;;;;5051379;28;20461;-60
2022/05/17 01:48:25;;;;;;;7.30;4.60;;;18.30;99.90;;;;;;5051658;28;20446;-60
2022/05/17 01:50:52;;;;;;;6.37;5.20;;;18.40;99.90;;;;;;5051568;28;20528;-60
2022/05/17 01:53:19;;;;;;;8.10;5.20;;;18.50;99.90;;;;;;5051268;28;20524;-60
2022/05/17 01:55:48;;;;;;;11.00;5.70;;;18.50;99.90;;;;;;5050869;28;20589;-61
2022/05/17 01:58:15;;;;;;;8.80;6.00;;;18.50;99.90;;;;;;5051012;28;20449;-59
2022/05/17 02:00:42;;;;;;;7.83;5.37;;;18.50;99.90;;;;;;5050867;28;20442;-58
2022/05/17 02:03:09;;;;;;;8.93;6.10;;;18.30;99.90;;;;;;5050982;28;20965;-59
2022/05/17 02:05:36;;;;;;;10.50;5.37;;;18.40;99.90;;;;;;5051162;28;20446;-61
2022/05/17 02:08:04;;;;;;;9.07;5.13;;;18.40;99.90;;;;;;5050974;28;20941;-60
2022/05/17 02:10:31;;;;;;;8.73;5.63;;;18.30;99.90;;;;;;5051031;28;20506;-60
2022/05/17 02:13:00;;;;;;;8.37;5.50;;;18.30;99.90;;;;;;5050120;28;20477;-59
2022/05/17 02:15:27;;;;;;;7.63;5.70;;;18.30;99.90;;;;;;5050876;28;20461;-59
2022/05/17 02:17:55;;;;;;;8.13;5.33;;;18.20;99.90;;;;;;5050844;28;20449;-59
2022/05/17 02:20:22;;;;;;;10.03;6.00;;;18.00;99.90;;;;;;5050917;28;20465;-60
2022/05/17 02:22:50;;;;;;;8.60;5.47;;;17.80;99.90;;;;;;5050663;28;20481;-60
2022/05/17 02:25:17;;;;;;;8.33;5.57;;;17.90;99.90;;;;;;5050530;28;20490;-59
2022/05/17 02:27:44;;;;;;;9.43;5.47;;;17.90;99.90;;;;;;5050635;28;20461;-60
2022/05/17 02:30:14;;;;;;;6.73;5.13;;;17.60;99.90;;;;;;5050693;28;20454;-59
2022/05/17 02:32:41;;;;;;;8.57;6.77;;;17.20;99.90;;;;;;5050402;28;20500;-61
2022/05/17 02:35:12;;;;;;;7.90;4.67;;;16.90;99.90;;;;;;5050438;28;20489;-59
2022/05/17 02:37:40;;;;;;;8.00;5.33;;;16.60;99.90;;;;;;5050471;28;20485;-60
2022/05/17 02:40:08;;;;;;;6.70;5.40;;;16.80;99.90;;;;;;5050386;28;20454;-59
2022/05/17 02:42:35;;;;;;;9.07;5.70;;;17.10;99.90;;;;;;5050135;28;20477;-59
2022/05/17 02:45:03;;;;;;;7.67;4.53;;;17.30;99.90;;;;;;5050327;28;20450;-60
2022/05/17 02:47:32;;;;;;;6.93;5.17;;;17.40;99.90;;;;;;5050341;28;20450;-61
2022/05/17 02:50:00;;;;;;;9.17;5.73;;;17.60;99.90;;;;;;5050021;28;20453;-58
2022/05/17 02:52:27;;;;;;;8.13;5.40;;;17.70;99.90;;;;;;5050229;28;20474;-59
2022/05/17 02:54:54;;;;;;;7.83;5.10;;;17.70;99.90;;;;;;5050056;28;21125;-59
2022/05/17 02:57:21;;;;;;;7.20;5.00;;;17.70;99.90;;;;;;5050077;28;20457;-61
2022/05/17 02:59:48;;;;;;;10.73;5.30;;;17.50;99.90;;;;;;5050212;28;20453;-60
2022/05/17 03:02:15;;;;;;;8.10;5.70;;;17.60;99.90;;;;;;5050010;28;20951;-60
2022/05/17 03:04:43;;;;;;;10.70;5.50;;;17.60;99.90;;;;;;5049826;28;20450;-59
2022/05/17 03:07:10;;;;;;;8.87;5.93;;;17.60;99.90;;;;;;5049689;28;20457;-61
2022/05/17 03:09:38;;;;;;;12.97;6.70;;;17.60;99.90;;;;;;5050060;28;20500;-61
2022/05/17 03:12:06;;;;;;;10.23;5.43;;;17.60;99.90;;;;;;5049916;28;20777;-61
2022/05/17 03:14:33;;;;;;;6.57;5.67;;;17.70;99.90;;;;;;5049888;28;20869;-62
2022/05/17 03:17:00;;;;;;;8.17;5.70;;;17.70;99.90;;;;;;5049900;28;20469;-60
2022/05/17 03:19:27;;;;;;;8.47;5.40;;;17.80;99.90;;;;;;5049663;28;20450;-60
2022/05/17 03:21:55;;;;;;;7.30;5.70;;;17.80;99.90;;;;;;5049360;28;20474;-60
2022/05/17 03:24:22;;;;;;;9.23;5.40;;;17.80;99.90;;;;;;5048717;28;20458;-61
2022/05/17 03:26:51;;;;;;;8.13;6.10;;;17.90;99.90;;;;;;5049488;28;20984;-59
2022/05/17 03:29:18;;;;;;;9.20;6.10;;;17.90;99.90;;;;;;5049786;28;20936;-60
2022/05/17 03:31:45;;;;;;;8.33;5.77;;;17.90;99.90;;;;;;5049624;28;20469;-59
2022/05/17 03:34:12;;;;;;;6.27;4.80;;;17.90;99.90;;;;;;5049270;28;20524;-60
2022/05/17 03:36:39;;;;;;;14.63;7.00;;;17.90;99.90;;;;;;5049651;28;20454;-61
2022/05/17 03:39:07;;;;;;;8.03;5.27;;;17.90;99.90;;;;;;5049639;28;20956;-60
2022/05/17 03:41:34;;;;;;;7.97;5.10;;;18.00;99.90;;;;;;5049526;28;20473;-61
2022/05/17 03:44:01;;;;;;;8.00;5.57;;;18.00;99.90;;;;;;5049597;28;20442;-60
2022/05/17 03:46:28;;;;;;;7.60;5.50;;;18.00;99.90;;;;;;5049313;28;20456;-61
2022/05/17 03:48:55;;;;;;;9.20;6.27;;;18.00;99.90;;;;;;5049148;28;20445;-61
2022/05/17 03:51:23;;;;;;;8.50;6.93;;;18.00;99.90;;;;;;5049343;28;20477;-60
2022/05/17 03:53:50;;;;;;;8.70;5.73;;;18.00;99.90;;;;;;5049527;28;20505;-60
2022/05/17 03:56:19;;;;;;;7.50;5.40;;;18.00;99.90;;;;;;5049579;28;20507;-60
2022/05/17 03:58:46;;;;;;;10.60;6.17;;;18.00;99.90;;;;;;5049513;28;20457;-61
2022/05/17 04:01:14;;;;;;;7.30;5.80;;;18.00;99.90;;;;;;5049168;28;20469;-60
2022/05/17 04:03:43;;;;;;;10.80;5.87;;;18.10;99.90;;;;;;5049283;28;20791;-61
2022/05/17 04:06:10;;;;;;;8.97;6.20;;;18.20;99.90;;;;;;5049188;28;20813;-61
2022/05/17 04:08:37;;;;;;;12.67;6.97;;;18.30;99.90;;;;;;5049272;28;20902;-61
2022/05/17 04:11:05;;;;;;;11.20;7.00;;;18.40;99.90;;;;;;5049252;28;20664;-62
2022/05/17 04:13:33;;;;;;;9.60;6.57;;;18.30;99.90;;;;;;5048896;28;20460;-61
2022/05/17 04:16:02;;;;;;;12.63;6.60;;;18.30;99.90;;;;;;5049153;28;20458;-61
2022/05/17 04:18:30;;;;;;;11.80;6.33;;;18.40;99.90;;;;;;5049127;28;20461;-60
2022/05/17 04:21:01;;;;;;;14.73;8.00;;;18.40;99.90;;;;;;5048686;28;20487;-61
2022/05/17 04:23:29;;;;;;;9.17;7.20;;;18.40;99.90;;;;;;5049215;28;20453;-60
2022/05/17 04:25:56;;;;;;;8.70;6.40;;;18.50;99.90;;;;;;5048897;28;20493;-61
2022/05/17 04:28:23;;;;;;;14.60;7.57;;;18.70;99.90;;;;;;5049167;28;20527;-60
2022/05/17 04:30:52;;;;;;;9.07;6.60;;;18.60;99.90;;;;;;5048770;28;20970;-63
2022/05/17 04:33:19;;;;;;;12.23;6.67;;;18.70;99.90;;;;;;5048973;28;20938;-62
2022/05/17 04:35:46;;;;;;;12.20;6.93;;;18.70;99.90;;;;;;5049078;28;20489;-62
2022/05/17 04:38:13;;;;;;;7.23;6.30;;;18.80;99.90;;;;;;5052884;28;20450;-62
2022/05/17 04:40:41;;;;;;;9.23;7.00;;;18.90;99.90;;;;;;5052500;28;20459;-63
2022/05/17 04:43:09;;;;;;;11.10;7.80;;;19.00;99.90;;;;;;5052565;28;20954;-64
2022/05/17 04:45:36;;;;;;;10.50;6.70;;;18.90;99.90;;;;;;5052588;28;20457;-63
2022/05/17 04:48:05;;;;;;;9.57;5.93;;;18.80;99.90;;;;;;5052531;28;20458;-62
2022/05/17 04:50:32;;;;;;;9.37;6.27;;;18.80;99.90;;;;;;5052413;28;20449;-63
2022/05/17 04:53:00;;;;;;;8.43;4.60;;;18.80;99.90;;;;;;5052369;28;20902;-61
2022/05/17 04:55:28;;;;;;;6.60;5.20;;;18.80;99.90;;;;;;5052224;28;20512;-61
2022/05/17 04:57:55;;;;;;;11.57;5.73;;;18.90;99.90;;;;;;5052398;28;20807;-61
2022/05/17 05:00:25;;;;;;;7.60;5.03;;;18.90;99.90;;;;;;5052142;28;20465;-62
2022/05/17 05:02:53;;;;;;;10.83;5.87;;;19.00;99.90;;;;;;5052277;28;20453;-62
2022/05/17 05:05:22;;;;;;;8.27;5.97;;;19.00;99.90;;;;;;5052280;28;20450;-68
2022/05/17 05:07:49;;;;;;;7.83;5.73;;;18.90;99.90;;;;;;5052268;28;21066;-64
2022/05/17 05:10:16;;;;;;;11.03;6.50;;;19.00;99.90;;;;;;5052082;28;20450;-64
2022/05/17 05:12:44;;;;;;;10.17;5.80;;;18.90;99.90;;;;;;5052166;28;20832;-63
2022/05/17 05:15:12;;;;;;;9.00;6.30;;;18.90;99.90;;;;;;5052114;28;20490;-61
2022/05/17 05:17:40;;;;;;;10.33;5.37;;;18.80;99.90;;;;;;5052040;28;20445;-63
2022/05/17 05:20:09;;;;;;;8.77;6.17;;;19.00;99.90;;;;;;5052106;28;20465;-63
2022/05/17 05:22:38;;;;;;;8.27;6.20;;;19.10;99.90;;;;;;5051721;28;20484;-63
2022/05/17 05:25:07;;;;;;;10.70;8.10;;;19.20;99.90;;;;;;5051765;28;20488;-63
2022/05/17 05:27:34;;;;;;;9.93;7.87;;;19.30;99.90;;;;;;5051934;28;20458;-65
2022/05/17 05:30:02;;;;;;;10.33;6.40;;;19.60;99.90;;;;;;5051912;28;20450;-63
2022/05/17 05:32:29;;;;;;;10.77;5.73;;;19.50;99.90;;;;;;5051811;28;20470;-63
2022/05/17 05:34:56;;;;;;;9.97;5.80;;;19.60;99.90;;;;;;5051296;28;20489;-63
2022/05/17 05:37:23;;;;;;;10.43;6.77;;;19.80;99.90;;;;;;5051646;28;20446;-64
2022/05/17 05:39:52;;;;;;;10.30;6.03;;;20.00;99.90;;;;;;5051214;28;20450;-62
2022/05/17 05:42:19;;;;;;;7.40;5.40;;;20.00;99.90;;;;;;5051446;28;20469;-63
2022/05/17 05:44:46;;;;;;;10.80;7.23;;;20.00;99.90;;;;;;5051074;28;20973;-63
2022/05/17 05:47:13;;;;;;;9.73;5.97;;;20.20;99.90;;;;;;5050996;28;20462;-64
2022/05/17 05:49:40;;;;;;;12.30;6.33;;;20.30;99.90;;;;;;5050640;28;20799;-63
2022/05/17 05:52:08;;;;;;;7.53;6.03;;;20.30;99.90;;;;;;5051212;28;20473;-64
2022/05/17 05:54:35;;;;;;;8.63;5.73;;;20.30;99.90;;;;;;5051056;28;20485;-65
2022/05/17 05:57:04;;;;;;;6.80;5.47;;;20.50;99.90;;;;;;5051226;28;20454;-64
2022/05/17 05:59:31;;;;;;;10.10;5.93;;;20.70;99.90;;;;;;5051319;28;20461;-64
2022/05/17 06:01:59;;;;;;;10.37;6.43;;;20.90;99.90;;;;;;5050701;28;20790;-64
2022/05/17 06:04:27;;;;;;;9.57;6.40;;;21.10;99.90;;;;;;5051093;28;20469;-64
2022/05/17 06:06:55;;;;;;;10.63;6.10;;;21.20;99.90;;;;;;5051013;28;20935;-64
2022/05/17 06:09:22;;;;;;;12.73;7.43;;;21.50;99.90;;;;;;5051067;28;20904;-65
2022/05/17 06:11:49;;;;;;;9.47;6.93;;;21.70;99.90;;;;;;5050822;28;20478;-62
2022/05/17 06:14:20;;;;;;;10.10;6.70;;;21.80;99.90;;;;;;5050920;28;20450;-69
2022/05/17 06:16:47;;;;;;;12.77;6.30;;;22.00;99.90;;;;;;5050970;28;20454;-69
2022/05/17 06:19:14;;;;;;;8.90;6.13;;;22.20;99.90;;;;;;5051155;28;20461;-70
2022/05/17 06:21:41;;;;;;;10.13;7.20;;;22.30;99.90;;;;;;5050430;28;20473;-71
2022/05/17 06:24:09;;;;;;;13.07;8.07;;;22.50;99.90;;;;;;5050491;28;20458;-72
2022/05/17 06:26:36;;;;;;;12.30;8.43;;;22.60;99.90;;;;;;5050112;28;20499;-66
2022/05/17 06:29:04;;;;;;;10.60;9.00;;;22.70;99.90;;;;;;5050644;28;20536;-73
2022/05/17 06:31:32;;;;;;;13.93;8.23;;;22.80;99.90;;;;;;5050817;28;20477;-68
2022/05/17 06:33:59;;;;;;;11.73;8.73;;;22.90;99.90;;;;;;5050439;28;20968;-73
2022/05/17 06:36:26;;;;;;;12.00;8.73;;;23.10;99.90;;;;;;5050393;28;20489;-72
2022/05/17 06:38:54;;;;;;;16.10;10.60;;;23.20;99.90;;;;;;5050608;28;20498;-71
2022/05/17 06:41:21;;;;;;;17.10;10.70;;;23.50;99.40;;;;;;5050641;28;20554;-70
2022/05/17 06:43:48;;;;;;;14.60;9.10;;;23.40;98.70;;;;;;5050252;28;20961;-69
2022/05/17 06:46:15;;;;;;;13.40;10.17;;;23.40;99.30;;;;;;5050492;28;20465;-73
2022/05/17 06:48:44;;;;;;;14.30;11.20;;;23.50;98.70;;;;;;5050412;28;20457;-71
2022/05/17 06:51:11;;;;;;;13.07;8.80;;;23.60;97.80;;;;;;5050445;28;20543;-71
2022/05/17 06:53:38;;;;;;;17.90;11.30;;;23.70;97.40;;;;;;5050419;28;20461;-64
2022/05/17 06:56:06;;;;;;;10.53;9.43;;;23.90;97.40;;;;;;5050328;28;21015;-68
2022/05/17 06:58:33;;;;;;;20.77;12.00;;;24.10;97.20;;;;;;5049708;28;20991;-71
2022/05/17 07:01:01;;;;;;;14.17;11.60;;;24.10;96.30;;;;;;5049984;28;20473;-67
2022/05/17 07:03:28;;;;;;;32.73;11.87;;;24.30;96.30;;;;;;5049584;28;20460;-67
2022/05/17 07:05:56;;;;;;;10.60;8.90;;;24.50;96.50;;;;;;5050058;28;20484;-67
2022/05/17 07:08:23;;;;;;;11.10;9.77;;;24.60;96.40;;;;;;5050185;28;20461;-69
2022/05/17 07:13:35;;;;;;;14.40;9.80;;;24.60;94.60;;;;;;5049630;28;21081;-70
2022/05/17 07:16:02;;;;;;;15.40;10.37;;;24.80;94.40;;;;;;5049481;28;20493;-68
2022/05/17 07:18:30;;;;;;;12.07;9.43;;;24.90;94.10;;;;;;5049860;28;20457;-68
2022/05/17 07:20:59;;;;;;;15.13;9.50;;;25.10;93.60;;;;;;5049743;28;20473;-67
2022/05/17 07:23:26;;;;;;;19.67;9.57;;;25.30;93.20;;;;;;5049626;28;20457;-66
2022/05/17 07:25:55;;;;;;;16.23;9.30;;;25.50;92.60;;;;;;5049454;28;20525;-65
2022/05/17 07:28:24;;;;;;;18.93;9.27;;;25.70;92.40;;;;;;5049606;28;20462;-63
2022/05/17 07:30:52;;;;;;;11.57;9.90;;;25.70;91.30;;;;;;5049086;28;21035;-67
2022/05/17 07:33:20;;;;;;;15.73;10.73;;;25.70;91.50;;;;;;5049867;28;21224;-67
2022/05/17 07:35:48;;;;;;;12.90;10.70;;;25.70;90.30;;;;;;5049430;28;20579;-69
2022/05/17 07:38:18;;;;;;;19.07;9.67;;;25.50;90.50;;;;;;5049226;28;20461;-69
2022/05/17 07:40:45;;;;;;;14.37;9.70;;;25.60;91.70;;;;;;5049391;28;20456;-65
2022/05/17 07:43:13;;;;;;;15.33;9.90;;;25.70;91.80;;;;;;5049575;28;20461;-70
2022/05/17 07:45:40;;;;;;;12.13;9.73;;;25.80;91.60;;;;;;5049729;28;20473;-69
2022/05/17 07:48:07;;;;;;;15.10;10.20;;;26.00;90.30;;;;;;5049267;28;20454;-66
2022/05/17 07:50:35;;;;;;;13.97;10.70;;;26.00;89.10;;;;;;5049322;28;20465;-66
2022/05/17 07:53:14;;;;;;;13.97;10.70;;;25.90;86.90;;;;;;5049504;28;20464;-69
2022/05/17 07:55:44;;;;;;;14.90;9.53;;;26.00;87.00;;;;;;5049820;28;20484;-68
2022/05/17 07:58:11;;;;;;;13.90;9.30;;;26.20;87.00;;;;;;5048979;28;20457;-68
2022/05/17 08:00:39;;;;;;;13.20;10.43;;;26.40;86.30;;;;;;5048847;28;20461;-66
2022/05/17 08:03:08;;;;;;;14.87;9.77;;;26.60;85.90;;;;;;5048985;28;20488;-67
2022/05/17 08:05:36;;;;;;;13.73;9.27;;;26.90;85.70;;;;;;5049118;28;20572;-69
2022/05/17 08:08:04;;;;;;;10.03;9.03;;;27.10;84.00;;;;;;5049071;28;20454;-66
2022/05/17 08:10:32;;;;;;;12.60;9.03;;;27.20;81.10;;;;;;5048627;28;20465;-69
2022/05/17 08:13:00;;;;;;;15.53;9.40;;;27.30;79.80;;;;;;5053181;28;20450;-68
2022/05/17 08:15:30;;;;;;;11.80;10.10;;;27.30;80.10;;;;;;5052654;28;20576;-66
2022/05/17 08:17:57;;;;;;;16.63;8.83;;;26.90;78.60;;;;;;5052899;28;20461;-66
2022/05/17 08:20:24;;;;;;;10.00;8.73;;;27.00;78.40;;;;;;5053156;28;20458;-66
2022/05/17 08:22:51;;;;;;;10.07;8.20;;;27.20;78.20;;;;;;5053120;28;20450;-66
2022/05/17 08:28:07;;;;;;;10.07;7.73;;;27.50;77.60;;;;;;5052649;28;20536;-66
2022/05/17 08:30:38;;;;;;;11.87;7.10;;;27.80;78.50;;;;;;5052642;28;20952;-64
2022/05/17 08:33:17;;;;;;;9.97;7.00;;;27.90;77.40;;;;;;5052815;28;20894;-61
2022/05/17 08:35:46;;;;;;;11.10;7.07;;;28.00;73.90;;;;;;5052395;28;20496;-62
2022/05/17 08:38:16;;;;;;;13.23;8.07;;;28.30;73.80;;;;;;5052716;28;20461;-61
2022/05/17 08:40:59;;;;;;;11.30;7.60;;;28.50;71.20;;;;;;5052540;28;20540;-62
2022/05/17 08:43:30;;;;;;;9.07;6.47;;;28.70;69.60;;;;;;5052902;28;20481;-61
2022/05/17 08:46:12;;;;;;;10.20;6.77;;;29.00;69.30;;;;;;5052700;28;20457;-61
2022/05/17 08:48:49;;;;;;;10.53;6.53;;;29.10;67.00;;;;;;5052021;28;20466;-61
2022/05/17 08:51:24;;;;;;;11.10;6.50;;;29.10;65.60;;;;;;5052357;28;20506;-61
2022/05/17 08:53:51;;;;;;;8.73;6.40;;;29.10;62.00;;;;;;5052779;28;20835;-62
2022/05/17 08:56:19;;;;;;;9.20;5.63;;;29.00;62.90;;;;;;5052404;28;20569;-61
2022/05/17 08:58:50;;;;;;;13.73;6.70;;;28.90;62.20;;;;;;5052296;28;20488;-62
2022/05/17 09:01:24;;;;;;;12.57;6.50;;;28.90;61.80;;;;;;5052006;28;20469;-62
2022/05/17 09:04:01;;;;;;;8.30;5.90;;;29.20;62.00;;;;;;5052331;28;20940;-62
2022/05/17 09:06:35;;;;;;;10.70;4.67;;;29.40;61.90;;;;;;5052299;28;20553;-63
2022/05/17 09:09:07;;;;;;;10.17;5.90;;;29.50;59.00;;;;;;5052140;28;20477;-61
2022/05/17 09:11:44;;;;;;;7.10;3.93;;;29.50;55.90;;;;;;5052281;28;20456;-62
2022/05/17 09:14:15;;;;;;;8.60;4.40;;;29.50;53.90;;;;;;5052118;28;20484;-62
2022/05/17 09:16:46;;;;;;;6.13;3.87;;;29.40;53.20;;;;;;5051667;28;20485;-62
2022/05/17 09:19:15;;;;;;;6.60;3.60;;;29.40;52.90;;;;;;5051720;28;20562;-62
2022/05/17 09:21:44;;;;;;;6.10;3.20;;;29.30;52.10;;;;;;5051904;28;20469;-62
2022/05/17 09:24:14;;;;;;;7.43;4.50;;;29.40;50.70;;;;;;5050473;28;20465;-62
2022/05/17 09:26:46;;;;;;;10.73;4.53;;;29.40;53.20;;;;;;5051613;28;20489;-61
2022/05/17 09:29:18;;;;;;;7.40;4.90;;;29.60;53.60;;;;;;5051784;28;21117;-61
2022/05/17 09:31:52;;;;;;;11.90;5.03;;;29.60;53.70;;;;;;5051978;28;20535;-63
2022/05/17 09:34:28;;;;;;;8.20;5.10;;;29.70;53.20;;;;;;5051383;28;20523;-61
2022/05/17 09:36:56;;;;;;;7.53;4.00;;;29.80;52.20;;;;;;5051348;28;20921;-61
2022/05/17 09:39:26;;;;;;;10.33;4.70;;;29.80;52.70;;;;;;5051088;28;20994;-62
2022/05/17 09:41:57;;;;;;;5.80;3.83;;;30.00;54.20;;;;;;5051551;28;20464;-61
2022/05/17 09:44:29;;;;;;;13.10;5.17;;;30.10;51.70;;;;;;5051480;28;20458;-63
2022/05/17 09:47:01;;;;;;;6.77;3.60;;;30.00;49.50;;;;;;5051351;28;21166;-61
2022/05/17 09:52:38;;;;;;;7.57;3.80;;;30.10;48.50;;;;;;5051474;28;20812;-61
2022/05/17 09:55:24;;;;;;;6.73;3.90;;;30.00;48.50;;;;;;5051274;28;20456;-61
2022/05/17 09:57:54;;;;;;;6.00;3.13;;;29.80;49.30;;;;;;5050977;28;20520;-62
2022/05/17 10:00:27;;;;;;;8.33;4.13;;;30.00;49.40;;;;;;5051197;28;20465;-65
2022/05/17 10:03:00;;;;;;;7.27;3.93;;;30.20;49.90;;;;;;5051199;28;20465;-67
2022/05/17 10:05:29;;;;;;;5.70;3.53;;;30.50;48.90;;;;;;5050666;28;20531;-65
2022/05/17 10:08:00;;;;;;;8.63;3.73;;;30.50;46.40;;;;;;5050688;28;20442;-66
2022/05/17 10:10:35;;;;;;;6.90;3.67;;;30.70;46.90;;;;;;5050627;28;20934;-67
2022/05/17 10:13:17;;;;;;;7.90;4.40;;;30.80;46.90;;;;;;5050892;28;20453;-68
2022/05/17 10:15:48;;;;;;;7.03;3.60;;;31.00;47.00;;;;;;5050272;28;20497;-65
2022/05/17 10:18:30;;;;;;;5.10;3.57;;;31.30;46.20;;;;;;5050463;28;20511;-66
2022/05/17 10:21:04;;;;;;;8.60;4.63;;;31.40;45.80;;;;;;5050662;28;20910;-64
2022/05/17 10:23:38;;;;;;;9.50;3.77;;;31.60;47.50;;;;;;5050565;28;20456;-64
2022/05/17 10:26:10;;;;;;;6.67;4.10;;;31.70;45.30;;;;;;5050044;28;20485;-66
2022/05/17 10:28:45;;;;;;;6.50;3.90;;;31.70;44.80;;;;;;5050665;28;20533;-62
2022/05/17 10:31:21;;;;;;;5.60;3.67;;;31.80;44.40;;;;;;5050342;28;20554;-66
2022/05/17 10:34:04;;;;;;;9.47;3.70;;;31.80;42.30;;;;;;5050286;28;20890;-65
2022/05/17 10:36:40;;;;;;;4.87;3.00;;;31.90;43.50;;;;;;5050459;28;20490;-69
2022/05/17 10:39:20;;;;;;;6.63;4.80;;;31.90;44.10;;;;;;5050604;28;20449;-68
2022/05/17 10:41:47;;;;;;;9.10;3.90;;;32.10;43.70;;;;;;5050079;28;20473;-66
2022/05/17 10:44:18;;;;;;;7.13;4.70;;;32.30;45.20;;;;;;5050459;28;20509;-63
2022/05/17 10:46:54;;;;;;;7.50;4.90;;;32.50;44.40;;;;;;5050228;28;20449;-63
2022/05/17 10:49:31;;;;;;;5.17;3.27;;;32.70;43.60;;;;;;5050141;28;20456;-63
2022/05/17 10:52:08;;;;;;;6.73;3.37;;;32.90;42.90;;;;;;5049730;28;20470;-64
2022/05/17 10:54:48;;;;;;;6.10;2.87;;;32.80;41.40;;;;;;5050122;28;20453;-63
2022/05/17 10:57:25;;;;;;;5.87;3.20;;;32.90;42.60;;;;;;5050181;28;20490;-66
2022/05/17 11:00:01;;;;;;;8.00;3.60;;;33.10;41.40;;;;;;5050064;28;20523;-65
2022/05/17 11:02:55;;;;;;;6.77;2.57;;;33.10;40.70;;;;;;5049535;28;20485;-64
2022/05/17 11:05:31;;;;;;;6.93;3.17;;;33.10;40.10;;;;;;5049855;28;20460;-67
2022/05/17 11:08:08;;;;;;;5.10;3.00;;;32.60;40.00;;;;;;5049961;28;20449;-64
2022/05/17 11:10:50;;;;;;;4.73;2.00;;;32.80;39.60;;;;;;5049982;28;20453;-65
2022/05/17 11:13:27;;;;;;;5.40;3.03;;;32.90;40.20;;;;;;5049790;28;20453;-64
2022/05/17 11:16:01;;;;;;;6.70;3.57;;;33.20;41.20;;;;;;5049849;28;20977;-63
2022/05/17 11:18:40;;;;;;;4.47;2.27;;;33.40;41.50;;;;;;5049775;28;20453;-64
2022/05/17 11:21:14;;;;;;;6.30;3.10;;;33.30;40.30;;;;;;5049567;28;20576;-64
2022/05/17 11:23:50;;;;;;;5.20;2.53;;;33.40;40.00;;;;;;5049540;28;20449;-64
2022/05/17 11:26:50;;;;;;;4.80;2.57;;;33.50;40.00;;;;;;5049295;28;20623;-66
2022/05/17 11:29:56;;;;;;;5.37;3.03;;;33.60;40.20;;;;;;5049408;28;20553;-62
2022/05/17 11:32:26;;;;;;;6.60;2.87;;;33.60;41.10;;;;;;5049575;28;20946;-65
2022/05/17 11:34:56;;;;;;;5.17;2.47;;;33.70;40.10;;;;;;5049298;28;20458;-64
2022/05/17 11:37:47;;;;;;;4.30;2.40;;;33.70;39.70;;;;;;5049515;28;20872;-63
2022/05/17 11:40:52;;;;;;;5.50;3.13;;;33.80;39.40;;;;;;5049380;28;20579;-62
2022/05/17 11:43:42;;;;;;;10.70;4.67;;;33.70;40.70;;;;;;5049471;28;20544;-62
2022/05/17 11:46:52;;;;;;;5.63;4.20;;;33.90;39.70;;;;;;5048312;28;20449;-63
2022/05/17 11:49:32;;;;;;;7.80;4.77;;;33.60;39.30;;;;;;5049356;28;20453;-63
2022/05/17 11:52:27;;;;;;;4.70;3.40;;;33.50;39.60;;;;;;5049337;28;20484;-65
2022/05/17 11:54:55;;;;;;;6.30;3.23;;;33.60;39.80;;;;;;5049466;28;20450;-63
2022/05/17 11:58:03;;;;;;;4.60;3.03;;;33.80;40.40;;;;;;5049286;28;20493;-63
2022/05/17 12:00:53;;;;;;;5.53;3.20;;;34.00;40.30;;;;;;5047399;28;20453;-62
2022/05/17 12:03:50;;;;;;;7.10;2.70;;;34.30;39.80;;;;;;5049333;28;20841;-63
2022/05/17 12:06:43;;;;;;;10.00;3.40;;;34.40;39.30;;;;;;5049424;28;20456;-64
2022/05/17 12:09:29;;;;;;;5.63;3.53;;;34.50;39.40;;;;;;5048979;28;20446;-63
2022/05/17 12:12:29;;;;;;;5.77;2.90;;;34.50;39.00;;;;;;5049260;28;20554;-64
2022/05/17 12:15:21;;;;;;;5.33;2.70;;;34.50;39.00;;;;;;5049394;28;20450;-63
2022/05/17 12:17:59;;;;;;;8.13;3.63;;;34.50;39.60;;;;;;5046523;28;20486;-63
2022/05/17 12:20:39;;;;;;;4.83;2.43;;;34.50;38.60;;;;;;5049200;28;20452;-63
2022/05/17 12:23:15;;;;;;;7.03;3.30;;;34.20;38.90;;;;;;5049234;28;20509;-63
2022/05/17 12:25:48;;;;;;;6.23;3.40;;;34.20;39.00;;;;;;5048493;28;20542;-63
2022/05/17 12:28:22;;;;;;;5.90;3.30;;;34.30;39.30;;;;;;5048959;28;20457;-63
2022/05/17 12:30:53;;;;;;;5.10;2.73;;;34.40;38.80;;;;;;5048850;28;20477;-63
2022/05/17 12:33:23;;;;;;;5.90;2.97;;;34.60;39.10;;;;;;5049127;28;20469;-62
2022/05/17 12:35:51;;;;;;;8.53;2.90;;;34.60;38.10;;;;;;5049200;28;20496;-63
2022/05/17 12:44:04;;;;;;;5.80;3.37;;;34.70;38.10;;;;;;5049298;28;20496;-63
2022/05/17 12:46:32;;;;;;;5.53;3.97;;;35.00;38.10;;;;;;5048985;28;20577;-62
2022/05/17 12:49:02;;;;;;;6.20;4.77;;;35.30;38.00;;;;;;5049060;28;20515;-63
2022/05/17 12:51:31;;;;;;;5.43;2.67;;;35.40;37.30;;;;;;5048971;28;20505;-63
2022/05/17 12:54:03;;;;;;;4.10;2.10;;;35.00;36.60;;;;;;5049038;28;20457;-63
2022/05/17 12:56:36;;;;;;;5.50;2.93;;;34.50;36.80;;;;;;5048896;28;20481;-63
2022/05/17 12:59:08;;;;;;;6.37;3.50;;;34.10;37.70;;;;;;5052095;28;20489;-62
2022/05/17 13:01:38;;;;;;;5.33;3.20;;;34.30;38.00;;;;;;5052335;28;20476;-63
2022/05/17 13:04:10;;;;;;;4.80;2.70;;;34.50;38.30;;;;;;5052162;28;20453;-63
2022/05/17 13:06:40;;;;;;;5.90;3.60;;;34.70;38.10;;;;;;5052403;28;20890;-63
2022/05/17 13:09:07;;;;;;;5.47;3.30;;;35.00;38.20;;;;;;5052300;28;20461;-62
2022/05/17 13:11:36;;;;;;;7.30;2.93;;;35.40;37.70;;;;;;5051746;28;20954;-64
2022/05/17 13:14:09;;;;;;;6.70;2.97;;;35.60;37.50;;;;;;5051978;28;20458;-63
2022/05/17 13:16:41;;;;;;;7.90;2.70;;;35.50;36.20;;;;;;5052120;28;20488;-63
2022/05/17 13:19:12;;;;;;;4.53;2.80;;;35.50;38.00;;;;;;5052396;28;20540;-63
2022/05/17 13:21:42;;;;;;;7.07;2.30;;;35.50;36.70;;;;;;5051990;28;20469;-63